sensor_id;sensor_type;location;lat;lon;timestamp;pressure;altitude;pressure_sealevel;temperature;humidity
80644;BME280;70010;60.224;24.712;2024-02-15T00:00:08;102026.45;;;-1.39;57.82
80644;BME280;70010;60.224;24.712;2024-02-15T00:02:32;102027.00;;;-1.77;58.86
80644;BME280;70010;60.224;24.712;2024-02-15T00:04:58;102025.59;;;-1.84;57.91
80644;BME280;70010;60.224;24.712;2024-02-15T00:07:23;102029.50;;;-1.30;56.65
80644;BME280;70010;60.224;24.712;2024-02-15T00:09:48;102028.16;;;-1.46;56.95
80644;BME280;70010;60.224;24.712;2024-02-15T00:12:13;102026.85;;;-1.80;57.16
80644;BME280;70010;60.224;24.712;2024-02-15T00:14:39;102030.47;;;-1.60;57.02
80644;BME280;70010;60.224;24.712;2024-02-15T00:17:05;102030.28;;;-1.59;58.65
80644;BME280;70010;60.224;24.712;2024-02-15T00:19:30;102037.24;;;-1.15;56.41
80644;BME280;70010;60.224;24.712;2024-02-15T00:21:55;102037.93;;;-1.10;56.33
80644;BME280;70010;60.224;24.712;2024-02-15T00:24:20;102032.92;;;-0.38;54.34
80644;BME280;70010;60.224;24.712;2024-02-15T00:26:45;102033.77;;;-0.58;55.06
80644;BME280;70010;60.224;24.712;2024-02-15T00:29:10;102035.43;;;-0.46;54.75
80644;BME280;70010;60.224;24.712;2024-02-15T00:31:36;102041.20;;;-1.37;55.57
80644;BME280;70010;60.224;24.712;2024-02-15T00:34:01;102040.80;;;-2.26;58.55
80644;BME280;70010;60.224;24.712;2024-02-15T00:36:27;102041.67;;;-1.02;56.33
80644;BME280;70010;60.224;24.712;2024-02-15T00:38:52;102042.46;;;-2.26;58.46
80644;BME280;70010;60.224;24.712;2024-02-15T00:41:17;102037.17;;;-1.16;56.94
80644;BME280;70010;60.224;24.712;2024-02-15T00:43:43;102038.03;;;-3.00;61.14
80644;BME280;70010;60.224;24.712;2024-02-15T00:46:08;102038.70;;;-2.86;60.49
80644;BME280;70010;60.224;24.712;2024-02-15T00:48:34;102034.89;;;-2.57;60.14
80644;BME280;70010;60.224;24.712;2024-02-15T00:50:59;102039.90;;;-1.71;58.75
80644;BME280;70010;60.224;24.712;2024-02-15T00:53:25;102039.50;;;-1.88;58.77
80644;BME280;70010;60.224;24.712;2024-02-15T00:55:51;102038.10;;;-1.71;57.62
80644;BME280;70010;60.224;24.712;2024-02-15T00:58:15;102043.19;;;-2.39;58.97
80644;BME280;70010;60.224;24.712;2024-02-15T01:00:41;102035.43;;;-0.43;54.74
80644;BME280;70010;60.224;24.712;2024-02-15T01:03:06;102041.71;;;-1.75;57.30
80644;BME280;70010;60.224;24.712;2024-02-15T01:05:32;102041.36;;;-1.56;56.96
80644;BME280;70010;60.224;24.712;2024-02-15T01:07:57;102045.53;;;-2.18;58.32
80644;BME280;70010;60.224;24.712;2024-02-15T01:10:23;102042.47;;;-1.15;56.50
80644;BME280;70010;60.224;24.712;2024-02-15T01:12:49;102050.26;;;-4.36;64.58
80644;BME280;70010;60.224;24.712;2024-02-15T01:15:14;102047.18;;;-3.21;63.36
80644;BME280;70010;60.224;24.712;2024-02-15T01:17:39;102045.39;;;-2.93;62.36
80644;BME280;70010;60.224;24.712;2024-02-15T01:20:05;102043.18;;;-1.78;59.82
80644;BME280;70010;60.224;24.712;2024-02-15T01:22:31;102046.28;;;-2.11;59.21
80644;BME280;70010;60.224;24.712;2024-02-15T01:24:57;102042.15;;;-2.30;59.60
80644;BME280;70010;60.224;24.712;2024-02-15T01:27:22;102041.05;;;-1.82;59.40
80644;BME280;70010;60.224;24.712;2024-02-15T01:29:48;102039.01;;;-1.84;59.04
80644;BME280;70010;60.224;24.712;2024-02-15T01:32:14;102037.18;;;-1.38;57.40
80644;BME280;70010;60.224;24.712;2024-02-15T01:34:40;102042.45;;;-3.45;62.93
80644;BME280;70010;60.224;24.712;2024-02-15T01:37:05;102041.69;;;-1.10;56.74
80644;BME280;70010;60.224;24.712;2024-02-15T01:39:31;102050.07;;;-3.97;64.03
80644;BME280;70010;60.224;24.712;2024-02-15T01:41:56;102051.27;;;-3.49;63.83
80644;BME280;70010;60.224;24.712;2024-02-15T01:44:22;102050.85;;;-3.08;62.64
80644;BME280;70010;60.224;24.712;2024-02-15T01:46:47;102050.38;;;-2.68;62.41
80644;BME280;70010;60.224;24.712;2024-02-15T01:49:12;102048.48;;;-3.08;62.20
80644;BME280;70010;60.224;24.712;2024-02-15T01:51:37;102048.66;;;-2.80;62.25
80644;BME280;70010;60.224;24.712;2024-02-15T01:54:03;102047.83;;;-2.53;61.37
80644;BME280;70010;60.224;24.712;2024-02-15T01:56:28;102047.63;;;-1.33;58.83
80644;BME280;70010;60.224;24.712;2024-02-15T01:58:54;102049.55;;;-2.26;59.93
80644;BME280;70010;60.224;24.712;2024-02-15T02:01:21;102049.91;;;-2.56;61.91
80644;BME280;70010;60.224;24.712;2024-02-15T02:03:44;102049.74;;;-2.11;59.82
80644;BME280;70010;60.224;24.712;2024-02-15T02:06:09;102049.38;;;-2.74;61.46
80644;BME280;70010;60.224;24.712;2024-02-15T02:08:35;102048.68;;;-1.51;58.87
80644;BME280;70010;60.224;24.712;2024-02-15T02:11:01;102053.27;;;-3.67;63.87
80644;BME280;70010;60.224;24.712;2024-02-15T02:13:26;102045.22;;;-1.30;57.75
80644;BME280;70010;60.224;24.712;2024-02-15T02:15:52;102040.76;;;-2.37;59.77
80644;BME280;70010;60.224;24.712;2024-02-15T02:18:17;102045.47;;;-2.69;62.09
80644;BME280;70010;60.224;24.712;2024-02-15T02:20:43;102046.88;;;-2.98;62.85
80644;BME280;70010;60.224;24.712;2024-02-15T02:23:14;102044.89;;;-3.29;62.28
80644;BME280;70010;60.224;24.712;2024-02-15T02:25:34;102042.61;;;-2.02;60.81
80644;BME280;70010;60.224;24.712;2024-02-15T02:27:59;102044.58;;;-1.80;58.71
80644;BME280;70010;60.224;24.712;2024-02-15T02:30:24;102049.26;;;-2.33;60.14
80644;BME280;70010;60.224;24.712;2024-02-15T02:32:49;102053.04;;;-1.01;57.04
80644;BME280;70010;60.224;24.712;2024-02-15T02:35:15;102056.35;;;-2.12;58.69
80644;BME280;70010;60.224;24.712;2024-02-15T02:37:40;102055.86;;;-0.95;58.03
80644;BME280;70010;60.224;24.712;2024-02-15T02:40:06;102055.02;;;-2.09;60.41
80644;BME280;70010;60.224;24.712;2024-02-15T02:42:31;102055.52;;;-1.70;58.13
80644;BME280;70010;60.224;24.712;2024-02-15T02:44:56;102056.68;;;-2.73;60.53
80644;BME280;70010;60.224;24.712;2024-02-15T02:47:21;102059.19;;;-0.70;57.74
80644;BME280;70010;60.224;24.712;2024-02-15T02:49:46;102060.16;;;-2.61;61.89
80644;BME280;70010;60.224;24.712;2024-02-15T02:52:12;102057.95;;;-1.32;58.01
80644;BME280;70010;60.224;24.712;2024-02-15T02:54:37;102060.24;;;-1.82;58.66
80644;BME280;70010;60.224;24.712;2024-02-15T02:57:03;102059.30;;;-1.75;58.24
80644;BME280;70010;60.224;24.712;2024-02-15T02:59:28;102067.09;;;-1.37;58.22
80644;BME280;70010;60.224;24.712;2024-02-15T03:01:54;102069.00;;;-3.73;64.26
80644;BME280;70010;60.224;24.712;2024-02-15T03:04:19;102066.76;;;-2.36;60.90
80644;BME280;70010;60.224;24.712;2024-02-15T03:06:45;102068.77;;;-1.86;59.64
80644;BME280;70010;60.224;24.712;2024-02-15T03:09:11;102066.78;;;-0.63;57.73
80644;BME280;70010;60.224;24.712;2024-02-15T03:11:36;102068.10;;;-1.54;58.52
80644;BME280;70010;60.224;24.712;2024-02-15T03:14:01;102066.55;;;-2.23;60.17
80644;BME280;70010;60.224;24.712;2024-02-15T03:16:27;102068.40;;;-2.56;61.86
80644;BME280;70010;60.224;24.712;2024-02-15T03:18:52;102068.65;;;-2.82;62.81
80644;BME280;70010;60.224;24.712;2024-02-15T03:21:17;102075.41;;;-2.98;63.61
80644;BME280;70010;60.224;24.712;2024-02-15T03:23:43;102072.31;;;-2.73;61.92
80644;BME280;70010;60.224;24.712;2024-02-15T03:26:09;102070.61;;;-2.08;61.18
80644;BME280;70010;60.224;24.712;2024-02-15T03:28:34;102075.03;;;-1.61;59.70
80644;BME280;70010;60.224;24.712;2024-02-15T03:30:59;102079.68;;;-1.20;59.17
80644;BME280;70010;60.224;24.712;2024-02-15T03:33:25;102083.21;;;-2.75;61.91
80644;BME280;70010;60.224;24.712;2024-02-15T03:35:51;102081.31;;;-2.07;61.33
80644;BME280;70010;60.224;24.712;2024-02-15T03:38:15;102083.10;;;-3.20;63.49
80644;BME280;70010;60.224;24.712;2024-02-15T03:40:40;102082.34;;;-2.67;61.37
80644;BME280;70010;60.224;24.712;2024-02-15T03:43:08;102081.65;;;-3.21;63.59
80644;BME280;70010;60.224;24.712;2024-02-15T03:45:32;102082.02;;;-3.45;64.26
80644;BME280;70010;60.224;24.712;2024-02-15T03:47:57;102079.78;;;-3.30;63.99
80644;BME280;70010;60.224;24.712;2024-02-15T03:50:23;102077.89;;;-2.03;61.26
80644;BME280;70010;60.224;24.712;2024-02-15T03:52:48;102081.43;;;-2.38;61.51
80644;BME280;70010;60.224;24.712;2024-02-15T03:55:13;102080.69;;;-2.35;61.62
80644;BME280;70010;60.224;24.712;2024-02-15T03:57:39;102081.09;;;-1.87;60.02
80644;BME280;70010;60.224;24.712;2024-02-15T04:00:05;102079.99;;;-1.62;60.12
80644;BME280;70010;60.224;24.712;2024-02-15T04:02:30;102082.76;;;-2.69;61.63
80644;BME280;70010;60.224;24.712;2024-02-15T04:04:56;102077.99;;;-2.38;61.29
80644;BME280;70010;60.224;24.712;2024-02-15T04:07:21;102079.12;;;-2.57;61.49
80644;BME280;70010;60.224;24.712;2024-02-15T04:09:46;102080.47;;;-2.00;60.57
80644;BME280;70010;60.224;24.712;2024-02-15T04:12:11;102078.03;;;-1.90;60.58
80644;BME280;70010;60.224;24.712;2024-02-15T04:14:37;102082.66;;;-2.51;61.99
80644;BME280;70010;60.224;24.712;2024-02-15T04:17:02;102080.55;;;-2.52;60.77
80644;BME280;70010;60.224;24.712;2024-02-15T04:19:27;102080.90;;;-1.38;59.29
80644;BME280;70010;60.224;24.712;2024-02-15T04:21:52;102077.35;;;-1.70;60.01
80644;BME280;70010;60.224;24.712;2024-02-15T04:24:18;102076.46;;;-2.28;60.65
80644;BME280;70010;60.224;24.712;2024-02-15T04:26:43;102075.35;;;-1.87;60.23
80644;BME280;70010;60.224;24.712;2024-02-15T04:29:09;102077.60;;;-2.44;61.44
80644;BME280;70010;60.224;24.712;2024-02-15T04:31:35;102073.82;;;-2.05;59.63
80644;BME280;70010;60.224;24.712;2024-02-15T04:34:00;102066.65;;;-2.05;59.40
80644;BME280;70010;60.224;24.712;2024-02-15T04:36:25;102061.66;;;-1.81;58.98
80644;BME280;70010;60.224;24.712;2024-02-15T04:38:51;102064.95;;;-1.12;57.57
80644;BME280;70010;60.224;24.712;2024-02-15T04:41:16;102060.67;;;-0.17;55.09
80644;BME280;70010;60.224;24.712;2024-02-15T04:43:41;102064.36;;;-1.09;56.85
80644;BME280;70010;60.224;24.712;2024-02-15T04:46:07;102065.23;;;-1.25;57.36
80644;BME280;70010;60.224;24.712;2024-02-15T04:48:32;102070.24;;;-3.54;63.19
80644;BME280;70010;60.224;24.712;2024-02-15T04:50:57;102063.75;;;-3.14;62.71
80644;BME280;70010;60.224;24.712;2024-02-15T04:53:23;102063.02;;;-0.66;56.26
80644;BME280;70010;60.224;24.712;2024-02-15T04:55:49;102065.51;;;-0.15;55.14
80644;BME280;70010;60.224;24.712;2024-02-15T04:58:14;102072.56;;;-1.42;56.82
80644;BME280;70010;60.224;24.712;2024-02-15T05:00:39;102068.04;;;-0.81;56.77
80644;BME280;70010;60.224;24.712;2024-02-15T05:03:05;102064.87;;;-0.13;55.15
80644;BME280;70010;60.224;24.712;2024-02-15T05:05:30;102076.79;;;0.53;54.05
80644;BME280;70010;60.224;24.712;2024-02-15T05:07:56;102085.46;;;-3.92;65.41
80644;BME280;70010;60.224;24.712;2024-02-15T05:10:22;102082.86;;;-0.87;57.95
80644;BME280;70010;60.224;24.712;2024-02-15T05:12:47;102081.79;;;-0.44;55.87
80644;BME280;70010;60.224;24.712;2024-02-15T05:15:15;102088.05;;;-1.63;59.04
80644;BME280;70010;60.224;24.712;2024-02-15T05:17:39;102088.27;;;-1.57;60.14
80644;BME280;70010;60.224;24.712;2024-02-15T05:20:05;102089.41;;;-1.11;58.02
80644;BME280;70010;60.224;24.712;2024-02-15T05:22:30;102088.93;;;-1.35;58.23
80644;BME280;70010;60.224;24.712;2024-02-15T05:24:56;102089.22;;;-0.21;55.51
80644;BME280;70010;60.224;24.712;2024-02-15T05:27:21;102092.19;;;-0.16;54.76
80644;BME280;70010;60.224;24.712;2024-02-15T05:29:47;102097.22;;;-1.61;59.00
80644;BME280;70010;60.224;24.712;2024-02-15T05:32:12;102099.33;;;-3.90;64.08
80644;BME280;70010;60.224;24.712;2024-02-15T05:34:37;102098.17;;;-0.85;57.21
80644;BME280;70010;60.224;24.712;2024-02-15T05:37:03;102100.37;;;-0.79;56.48
80644;BME280;70010;60.224;24.712;2024-02-15T05:39:29;102102.27;;;-1.66;59.29
80644;BME280;70010;60.224;24.712;2024-02-15T05:41:54;102100.89;;;-1.57;59.17
80644;BME280;70010;60.224;24.712;2024-02-15T05:44:19;102100.69;;;-0.92;58.79
80644;BME280;70010;60.224;24.712;2024-02-15T05:46:45;102096.07;;;-1.75;60.53
80644;BME280;70010;60.224;24.712;2024-02-15T05:49:10;102094.86;;;-1.77;59.68
80644;BME280;70010;60.224;24.712;2024-02-15T05:51:35;102095.12;;;-0.73;56.79
80644;BME280;70010;60.224;24.712;2024-02-15T05:54:01;102099.57;;;-3.42;62.59
80644;BME280;70010;60.224;24.712;2024-02-15T05:56:26;102099.54;;;-0.45;56.71
80644;BME280;70010;60.224;24.712;2024-02-15T05:58:52;102099.11;;;-0.71;56.85
80644;BME280;70010;60.224;24.712;2024-02-15T06:01:17;102097.08;;;-1.43;58.12
80644;BME280;70010;60.224;24.712;2024-02-15T06:03:43;102097.36;;;-0.80;56.87
80644;BME280;70010;60.224;24.712;2024-02-15T06:06:08;102102.12;;;-1.37;58.50
80644;BME280;70010;60.224;24.712;2024-02-15T06:08:34;102103.97;;;-0.56;56.63
80644;BME280;70010;60.224;24.712;2024-02-15T06:10:59;102104.83;;;-0.97;57.82
80644;BME280;70010;60.224;24.712;2024-02-15T06:13:25;102105.67;;;-1.50;59.12
80644;BME280;70010;60.224;24.712;2024-02-15T06:15:50;102107.85;;;-1.27;57.93
80644;BME280;70010;60.224;24.712;2024-02-15T06:18:15;102107.41;;;-1.22;57.81
80644;BME280;70010;60.224;24.712;2024-02-15T06:20:41;102111.19;;;-1.72;59.05
80644;BME280;70010;60.224;24.712;2024-02-15T06:23:07;102112.95;;;-1.33;58.51
80644;BME280;70010;60.224;24.712;2024-02-15T06:25:32;102107.41;;;-0.09;55.61
80644;BME280;70010;60.224;24.712;2024-02-15T06:27:57;102104.79;;;0.06;54.56
80644;BME280;70010;60.224;24.712;2024-02-15T06:30:22;102106.18;;;-0.09;55.22
80644;BME280;70010;60.224;24.712;2024-02-15T06:32:48;102112.07;;;-0.62;57.36
80644;BME280;70010;60.224;24.712;2024-02-15T06:35:15;102105.14;;;-0.06;54.79
80644;BME280;70010;60.224;24.712;2024-02-15T06:37:39;102114.66;;;-0.44;56.39
80644;BME280;70010;60.224;24.712;2024-02-15T06:40:05;102106.88;;;0.15;54.77
80644;BME280;70010;60.224;24.712;2024-02-15T06:42:30;102114.24;;;-0.52;56.60
80644;BME280;70010;60.224;24.712;2024-02-15T06:44:56;102115.72;;;-1.73;60.26
80644;BME280;70010;60.224;24.712;2024-02-15T06:47:21;102117.78;;;-0.63;57.87
80644;BME280;70010;60.224;24.712;2024-02-15T06:49:46;102117.47;;;-0.81;56.89
80644;BME280;70010;60.224;24.712;2024-02-15T06:52:12;102118.96;;;-0.39;56.78
80644;BME280;70010;60.224;24.712;2024-02-15T06:54:38;102122.25;;;-0.71;56.97
80644;BME280;70010;60.224;24.712;2024-02-15T06:57:03;102121.30;;;-0.25;56.48
80644;BME280;70010;60.224;24.712;2024-02-15T06:59:27;102119.31;;;-2.10;59.84
80644;BME280;70010;60.224;24.712;2024-02-15T07:01:53;102123.75;;;-0.68;57.80
80644;BME280;70010;60.224;24.712;2024-02-15T07:04:18;102120.03;;;0.76;55.02
80644;BME280;70010;60.224;24.712;2024-02-15T07:06:43;102123.13;;;-0.19;56.72
80644;BME280;70010;60.224;24.712;2024-02-15T07:09:09;102122.98;;;-0.03;55.84
80644;BME280;70010;60.224;24.712;2024-02-15T07:11:34;102121.39;;;0.76;54.51
80644;BME280;70010;60.224;24.712;2024-02-15T07:14:00;102127.08;;;-0.08;56.53
80644;BME280;70010;60.224;24.712;2024-02-15T07:16:26;102125.24;;;-0.26;56.25
80644;BME280;70010;60.224;24.712;2024-02-15T07:18:51;102129.09;;;-0.62;56.70
80644;BME280;70010;60.224;24.712;2024-02-15T07:21:16;102128.80;;;0.44;54.87
80644;BME280;70010;60.224;24.712;2024-02-15T07:23:42;102139.42;;;-0.97;58.41
80644;BME280;70010;60.224;24.712;2024-02-15T07:26:07;102137.76;;;-0.23;56.91
80644;BME280;70010;60.224;24.712;2024-02-15T07:28:32;102132.54;;;0.15;55.62
80644;BME280;70010;60.224;24.712;2024-02-15T07:30:58;102133.77;;;0.53;55.50
80644;BME280;70010;60.224;24.712;2024-02-15T07:33:23;102140.10;;;-1.90;59.61
80644;BME280;70010;60.224;24.712;2024-02-15T07:35:49;102136.80;;;-0.84;57.80
80644;BME280;70010;60.224;24.712;2024-02-15T07:38:14;102138.69;;;-1.25;58.44
80644;BME280;70010;60.224;24.712;2024-02-15T07:40:40;102136.89;;;-0.08;57.31
80644;BME280;70010;60.224;24.712;2024-02-15T07:43:04;102140.46;;;-0.30;57.42
80644;BME280;70010;60.224;24.712;2024-02-15T07:45:30;102133.00;;;0.70;55.44
80644;BME280;70010;60.224;24.712;2024-02-15T07:47:55;102134.00;;;1.27;53.77
80644;BME280;70010;60.224;24.712;2024-02-15T07:50:21;102142.08;;;-0.45;56.86
80644;BME280;70010;60.224;24.712;2024-02-15T07:52:47;102136.36;;;0.11;56.48
80644;BME280;70010;60.224;24.712;2024-02-15T07:55:12;102146.78;;;-2.18;61.44
80644;BME280;70010;60.224;24.712;2024-02-15T07:57:37;102150.42;;;-2.32;63.26
80644;BME280;70010;60.224;24.712;2024-02-15T08:00:03;102159.52;;;-4.12;71.03
80644;BME280;70010;60.224;24.712;2024-02-15T08:02:28;102153.66;;;-0.34;61.08
80644;BME280;70010;60.224;24.712;2024-02-15T08:04:54;102155.91;;;-1.12;61.49
80644;BME280;70010;60.224;24.712;2024-02-15T08:07:19;102153.27;;;0.86;56.24
80644;BME280;70010;60.224;24.712;2024-02-15T08:09:45;102155.52;;;-0.54;58.28
80644;BME280;70010;60.224;24.712;2024-02-15T08:12:10;102159.69;;;-0.28;58.78
80644;BME280;70010;60.224;24.712;2024-02-15T08:14:35;102151.75;;;0.35;56.51
80644;BME280;70010;60.224;24.712;2024-02-15T08:17:01;102161.64;;;-0.33;57.77
80644;BME280;70010;60.224;24.712;2024-02-15T08:19:26;102162.97;;;-1.39;61.36
80644;BME280;70010;60.224;24.712;2024-02-15T08:21:52;102163.22;;;-1.08;59.64
80644;BME280;70010;60.224;24.712;2024-02-15T08:24:17;102164.03;;;-0.55;59.20
80644;BME280;70010;60.224;24.712;2024-02-15T08:26:42;102162.51;;;-2.19;62.99
80644;BME280;70010;60.224;24.712;2024-02-15T08:29:08;102164.85;;;-1.59;61.20
80644;BME280;70010;60.224;24.712;2024-02-15T08:31:33;102156.00;;;0.15;57.66
80644;BME280;70010;60.224;24.712;2024-02-15T08:33:59;102153.70;;;1.46;54.62
80644;BME280;70010;60.224;24.712;2024-02-15T08:36:25;102151.41;;;0.88;55.63
80644;BME280;70010;60.224;24.712;2024-02-15T08:38:50;102156.08;;;0.43;56.10
80644;BME280;70010;60.224;24.712;2024-02-15T08:41:15;102157.56;;;-0.79;58.81
80644;BME280;70010;60.224;24.712;2024-02-15T08:43:41;102154.40;;;1.03;55.34
80644;BME280;70010;60.224;24.712;2024-02-15T08:46:06;102161.99;;;-1.05;58.33
80644;BME280;70010;60.224;24.712;2024-02-15T08:48:32;102160.59;;;-1.85;61.77
80644;BME280;70010;60.224;24.712;2024-02-15T08:50:58;102150.20;;;0.86;55.51
80644;BME280;70010;60.224;24.712;2024-02-15T08:53:23;102144.33;;;1.13;55.15
80644;BME280;70010;60.224;24.712;2024-02-15T08:55:49;102142.59;;;1.13;53.92
80644;BME280;70010;60.224;24.712;2024-02-15T08:58:14;102145.09;;;-0.85;59.54
80644;BME280;70010;60.224;24.712;2024-02-15T09:00:40;102141.22;;;-1.71;60.75
80644;BME280;70010;60.224;24.712;2024-02-15T09:03:05;102144.14;;;-0.15;57.90
80644;BME280;70010;60.224;24.712;2024-02-15T09:05:31;102144.67;;;-1.85;62.90
80644;BME280;70010;60.224;24.712;2024-02-15T09:07:57;102149.50;;;-0.62;60.95
80644;BME280;70010;60.224;24.712;2024-02-15T09:10:22;102149.08;;;-0.30;58.78
80644;BME280;70010;60.224;24.712;2024-02-15T09:12:48;102149.21;;;0.30;57.86
80644;BME280;70010;60.224;24.712;2024-02-15T09:15:14;102149.90;;;-1.75;62.52
80644;BME280;70010;60.224;24.712;2024-02-15T09:17:39;102146.56;;;-0.15;59.04
80644;BME280;70010;60.224;24.712;2024-02-15T09:20:07;102154.03;;;-2.18;63.73
80644;BME280;70010;60.224;24.712;2024-02-15T09:22:30;102154.76;;;-3.69;71.38
80644;BME280;70010;60.224;24.712;2024-02-15T09:24:55;102157.13;;;-1.40;64.85
80644;BME280;70010;60.224;24.712;2024-02-15T09:27:21;102159.65;;;-3.30;70.54
80644;BME280;70010;60.224;24.712;2024-02-15T09:29:46;102154.41;;;0.64;59.34
80644;BME280;70010;60.224;24.712;2024-02-15T09:32:12;102161.33;;;-0.67;61.72
80644;BME280;70010;60.224;24.712;2024-02-15T09:34:37;102165.77;;;-2.12;64.74
80644;BME280;70010;60.224;24.712;2024-02-15T09:37:03;102170.79;;;-0.83;62.68
80644;BME280;70010;60.224;24.712;2024-02-15T09:39:27;102158.57;;;0.35;57.70
80644;BME280;70010;60.224;24.712;2024-02-15T09:41:53;102159.07;;;-1.39;64.52
80644;BME280;70010;60.224;24.712;2024-02-15T09:44:19;102167.63;;;-2.03;68.48
80644;BME280;70010;60.224;24.712;2024-02-15T09:46:46;102161.50;;;-0.03;61.00
80644;BME280;70010;60.224;24.712;2024-02-15T09:49:11;102162.47;;;-0.26;60.79
80644;BME280;70010;60.224;24.712;2024-02-15T09:51:36;102159.71;;;-1.53;63.11
80644;BME280;70010;60.224;24.712;2024-02-15T09:54:01;102159.58;;;-2.09;65.14
80644;BME280;70010;60.224;24.712;2024-02-15T09:56:26;102162.57;;;-2.74;67.72
80644;BME280;70010;60.224;24.712;2024-02-15T09:58:51;102160.53;;;-2.03;65.21
80644;BME280;70010;60.224;24.712;2024-02-15T10:01:19;102165.37;;;-2.65;67.70
80644;BME280;70010;60.224;24.712;2024-02-15T10:03:41;102163.83;;;-1.66;66.20
80644;BME280;70010;60.224;24.712;2024-02-15T10:06:08;102161.41;;;-1.83;63.69
80644;BME280;70010;60.224;24.712;2024-02-15T10:08:33;102163.34;;;-2.12;66.26
80644;BME280;70010;60.224;24.712;2024-02-15T10:11:06;102169.61;;;-2.26;67.22
80644;BME280;70010;60.224;24.712;2024-02-15T10:13:24;102160.28;;;0.62;59.56
80644;BME280;70010;60.224;24.712;2024-02-15T10:15:49;102161.41;;;1.47;56.56
80644;BME280;70010;60.224;24.712;2024-02-15T10:18:14;102160.22;;;1.57;55.54
80644;BME280;70010;60.224;24.712;2024-02-15T10:20:40;102156.79;;;1.38;56.21
80644;BME280;70010;60.224;24.712;2024-02-15T10:23:11;102154.00;;;0.78;56.64
80644;BME280;70010;60.224;24.712;2024-02-15T10:25:30;102159.23;;;0.25;57.45
80644;BME280;70010;60.224;24.712;2024-02-15T10:28:01;102161.35;;;-1.84;65.80
80644;BME280;70010;60.224;24.712;2024-02-15T10:30:22;102154.73;;;0.27;59.91
80644;BME280;70010;60.224;24.712;2024-02-15T10:32:47;102148.45;;;1.30;56.19
80644;BME280;70010;60.224;24.712;2024-02-15T10:35:20;102155.20;;;-2.40;65.06
80644;BME280;70010;60.224;24.712;2024-02-15T10:37:38;102152.98;;;-1.32;62.71
80644;BME280;70010;60.224;24.712;2024-02-15T10:40:05;102148.72;;;-1.93;64.44
80644;BME280;70010;60.224;24.712;2024-02-15T10:42:29;102151.06;;;-3.52;72.70
80644;BME280;70010;60.224;24.712;2024-02-15T10:44:54;102142.19;;;-0.55;63.63
80644;BME280;70010;60.224;24.712;2024-02-15T10:47:19;102142.06;;;-1.84;65.35
80644;BME280;70010;60.224;24.712;2024-02-15T10:49:45;102149.61;;;-3.06;69.67
80644;BME280;70010;60.224;24.712;2024-02-15T10:52:11;102149.47;;;-1.84;67.95
80644;BME280;70010;60.224;24.712;2024-02-15T10:54:41;102141.53;;;-1.80;65.66
80644;BME280;70010;60.224;24.712;2024-02-15T10:57:04;102148.62;;;-3.03;69.20
80644;BME280;70010;60.224;24.712;2024-02-15T10:59:32;102148.21;;;-1.77;67.35
80644;BME280;70010;60.224;24.712;2024-02-15T11:01:59;102147.28;;;-1.25;63.95
80644;BME280;70010;60.224;24.712;2024-02-15T11:04:20;102138.56;;;1.29;57.23
80644;BME280;70010;60.224;24.712;2024-02-15T11:06:43;102145.24;;;-0.80;62.03
80644;BME280;70010;60.224;24.712;2024-02-15T11:09:09;102142.78;;;-1.70;65.16
80644;BME280;70010;60.224;24.712;2024-02-15T11:11:34;102145.50;;;-0.74;62.51
80644;BME280;70010;60.224;24.712;2024-02-15T11:18:50;102137.28;;;-0.22;59.82
80644;BME280;70010;60.224;24.712;2024-02-15T11:21:16;102130.91;;;0.02;59.33
80644;BME280;70010;60.224;24.712;2024-02-15T11:23:41;102129.73;;;0.74;57.86
80644;BME280;70010;60.224;24.712;2024-02-15T11:26:09;102132.69;;;-2.25;64.88
80644;BME280;70010;60.224;24.712;2024-02-15T11:28:36;102134.50;;;-0.49;62.87
80644;BME280;70010;60.224;24.712;2024-02-15T11:30:57;102131.46;;;-1.88;65.22
80644;BME280;70010;60.224;24.712;2024-02-15T11:33:27;102132.90;;;-0.03;61.28
80644;BME280;70010;60.224;24.712;2024-02-15T11:43:03;102134.21;;;-0.93;62.79
80644;BME280;70010;60.224;24.712;2024-02-15T11:45:30;102130.48;;;-2.04;65.74
80644;BME280;70010;60.224;24.712;2024-02-15T11:47:55;102129.13;;;-0.74;63.30
80644;BME280;70010;60.224;24.712;2024-02-15T11:50:21;102126.33;;;-1.43;63.85
80644;BME280;70010;60.224;24.712;2024-02-15T11:52:47;102124.07;;;-1.19;63.69
80644;BME280;70010;60.224;24.712;2024-02-15T11:55:12;102117.24;;;-1.48;64.28
80644;BME280;70010;60.224;24.712;2024-02-15T11:57:37;102123.33;;;-2.23;68.06
80644;BME280;70010;60.224;24.712;2024-02-15T12:00:02;102121.71;;;-0.77;63.33
80644;BME280;70010;60.224;24.712;2024-02-15T12:02:28;102121.33;;;-2.15;67.23
80644;BME280;70010;60.224;24.712;2024-02-15T12:04:53;102124.27;;;-0.83;64.39
80644;BME280;70010;60.224;24.712;2024-02-15T12:07:19;102126.08;;;-1.72;64.64
80644;BME280;70010;60.224;24.712;2024-02-15T12:09:44;102126.41;;;-0.00;62.60
80644;BME280;70010;60.224;24.712;2024-02-15T12:12:10;102121.43;;;0.47;60.54
80644;BME280;70010;60.224;24.712;2024-02-15T12:14:35;102131.11;;;-3.13;68.64
80644;BME280;70010;60.224;24.712;2024-02-15T12:17:02;102135.57;;;-0.79;62.83
80644;BME280;70010;60.224;24.712;2024-02-15T12:19:26;102131.72;;;0.15;60.37
80644;BME280;70010;60.224;24.712;2024-02-15T12:21:51;102130.13;;;1.49;56.87
80644;BME280;70010;60.224;24.712;2024-02-15T12:24:17;102131.38;;;1.45;56.69
80644;BME280;70010;60.224;24.712;2024-02-15T12:26:42;102129.09;;;1.12;56.94
80644;BME280;70010;60.224;24.712;2024-02-15T12:29:08;102125.33;;;1.16;57.18
80644;BME280;70010;60.224;24.712;2024-02-15T12:31:36;102127.63;;;-1.69;63.99
80644;BME280;70010;60.224;24.712;2024-02-15T12:34:02;102128.11;;;-1.80;65.36
80644;BME280;70010;60.224;24.712;2024-02-15T12:36:23;102132.95;;;-3.52;71.56
80644;BME280;70010;60.224;24.712;2024-02-15T12:41:19;102132.99;;;-2.36;69.89
80644;BME280;70010;60.224;24.712;2024-02-15T12:43:40;102130.64;;;-2.50;70.99